sensor_id;sensor_type;location;lat;lon;timestamp;temperature;humidity
2387;DHT22;49473;50.772;8.768;2023-01-26T00:02:10;0.10;99.90
2387;DHT22;49473;50.772;8.768;2023-01-26T00:04:37;0.20;99.90
2387;DHT22;49473;50.772;8.768;2023-01-26T00:07:03;0.20;99.90
2387;DHT22;49473;50.772;8.768;2023-01-26T00:09:30;0.10;99.90
2387;DHT22;49473;50.772;8.768;2023-01-26T00:11:57;-0.10;99.90
2387;DHT22;49473;50.772;8.768;2023-01-26T00:14:23;-0.20;99.90
2387;DHT22;49473;50.772;8.768;2023-01-26T00:16:51;0.00;99.90
2387;DHT22;49473;50.772;8.768;2023-01-26T00:19:19;0.00;99.90
2387;DHT22;49473;50.772;8.768;2023-01-26T00:21:45;0.00;99.90
2387;DHT22;49473;50.772;8.768;2023-01-26T00:24:12;0.00;99.90
2387;DHT22;49473;50.772;8.768;2023-01-26T00:26:38;0.00;99.90
2387;DHT22;49473;50.772;8.768;2023-01-26T00:29:05;0.00;99.90
2387;DHT22;49473;50.772;8.768;2023-01-26T00:31:32;0.00;99.90
2387;DHT22;49473;50.772;8.768;2023-01-26T00:34:00;0.00;99.90
2387;DHT22;49473;50.772;8.768;2023-01-26T00:36:27;-0.10;99.90
2387;DHT22;49473;50.772;8.768;2023-01-26T00:38:53;-0.20;99.90
2387;DHT22;49473;50.772;8.768;2023-01-26T00:41:20;-0.20;99.90
2387;DHT22;49473;50.772;8.768;2023-01-26T00:44:05;-0.20;99.90
2387;DHT22;49473;50.772;8.768;2023-01-26T00:46:31;-0.30;99.90
2387;DHT22;49473;50.772;8.768;2023-01-26T00:48:59;-0.30;99.90
2387;DHT22;49473;50.772;8.768;2023-01-26T00:51:26;-0.40;99.90
2387;DHT22;49473;50.772;8.768;2023-01-26T00:53:53;-0.40;99.90
2387;DHT22;49473;50.772;8.768;2023-01-26T00:56:19;-0.40;99.90
2387;DHT22;49473;50.772;8.768;2023-01-26T00:58:46;-0.30;99.90
2387;DHT22;49473;50.772;8.768;2023-01-26T01:01:13;-0.30;99.90
2387;DHT22;49473;50.772;8.768;2023-01-26T01:03:39;-0.40;99.90
2387;DHT22;49473;50.772;8.768;2023-01-26T01:06:08;-0.30;99.90
2387;DHT22;49473;50.772;8.768;2023-01-26T01:08:34;-0.40;99.90
2387;DHT22;49473;50.772;8.768;2023-01-26T01:11:03;-0.40;99.90
2387;DHT22;49473;50.772;8.768;2023-01-26T01:13:30;-0.50;99.90
2387;DHT22;49473;50.772;8.768;2023-01-26T01:15:57;-0.60;99.90
2387;DHT22;49473;50.772;8.768;2023-01-26T01:18:24;-0.60;99.90
2387;DHT22;49473;50.772;8.768;2023-01-26T01:20:50;-0.70;99.90
2387;DHT22;49473;50.772;8.768;2023-01-26T01:23:19;-0.80;99.90
2387;DHT22;49473;50.772;8.768;2023-01-26T01:25:45;-0.70;99.90
2387;DHT22;49473;50.772;8.768;2023-01-26T01:28:12;-0.70;99.90
2387;DHT22;49473;50.772;8.768;2023-01-26T01:30:39;-0.70;99.90
2387;DHT22;49473;50.772;8.768;2023-01-26T01:33:06;-0.60;99.90
2387;DHT22;49473;50.772;8.768;2023-01-26T01:35:32;-0.60;99.90
2387;DHT22;49473;50.772;8.768;2023-01-26T01:38:00;-0.80;99.90
2387;DHT22;49473;50.772;8.768;2023-01-26T01:40:29;-0.80;99.90
2387;DHT22;49473;50.772;8.768;2023-01-26T01:42:55;-0.80;99.90
2387;DHT22;49473;50.772;8.768;2023-01-26T01:45:42;-0.70;99.90
2387;DHT22;49473;50.772;8.768;2023-01-26T01:48:14;-0.70;99.90
2387;DHT22;49473;50.772;8.768;2023-01-26T01:50:43;-0.60;99.90
2387;DHT22;49473;50.772;8.768;2023-01-26T01:53:13;-0.50;99.90
2387;DHT22;49473;50.772;8.768;2023-01-26T01:55:44;-0.50;99.90
2387;DHT22;49473;50.772;8.768;2023-01-26T01:58:12;-0.50;99.90
2387;DHT22;49473;50.772;8.768;2023-01-26T02:00:38;-0.60;99.90
2387;DHT22;49473;50.772;8.768;2023-01-26T02:03:07;-0.50;99.90
2387;DHT22;49473;50.772;8.768;2023-01-26T02:05:46;-0.50;99.90
2387;DHT22;49473;50.772;8.768;2023-01-26T02:08:17;-0.50;99.90
2387;DHT22;49473;50.772;8.768;2023-01-26T02:10:47;-0.40;99.90
2387;DHT22;49473;50.772;8.768;2023-01-26T02:13:15;-0.50;99.90
2387;DHT22;49473;50.772;8.768;2023-01-26T02:15:42;-0.50;99.90
2387;DHT22;49473;50.772;8.768;2023-01-26T02:18:10;-0.50;99.90
2387;DHT22;49473;50.772;8.768;2023-01-26T02:20:42;-0.50;99.90
2387;DHT22;49473;50.772;8.768;2023-01-26T02:26:04;-0.60;99.90
2387;DHT22;49473;50.772;8.768;2023-01-26T02:28:31;-0.60;99.90
2387;DHT22;49473;50.772;8.768;2023-01-26T02:30:58;-0.50;99.90
2387;DHT22;49473;50.772;8.768;2023-01-26T02:33:27;-0.50;99.90
2387;DHT22;49473;50.772;8.768;2023-01-26T02:35:55;-0.40;99.90
2387;DHT22;49473;50.772;8.768;2023-01-26T02:38:23;-0.50;99.90
2387;DHT22;49473;50.772;8.768;2023-01-26T02:40:53;-0.50;99.90
2387;DHT22;49473;50.772;8.768;2023-01-26T02:43:24;-0.50;99.90
2387;DHT22;49473;50.772;8.768;2023-01-26T02:45:50;-0.50;99.90
2387;DHT22;49473;50.772;8.768;2023-01-26T02:48:17;-0.60;99.90
2387;DHT22;49473;50.772;8.768;2023-01-26T02:51:05;-0.70;99.90
2387;DHT22;49473;50.772;8.768;2023-01-26T02:53:31;-0.70;99.90
2387;DHT22;49473;50.772;8.768;2023-01-26T02:55:58;-0.60;99.90
2387;DHT22;49473;50.772;8.768;2023-01-26T02:58:25;-0.50;99.90
2387;DHT22;49473;50.772;8.768;2023-01-26T03:00:51;-0.50;99.90
2387;DHT22;49473;50.772;8.768;2023-01-26T03:03:21;-0.50;99.90
2387;DHT22;49473;50.772;8.768;2023-01-26T03:05:48;-0.60;99.90
2387;DHT22;49473;50.772;8.768;2023-01-26T03:08:15;-0.40;99.90
2387;DHT22;49473;50.772;8.768;2023-01-26T03:10:42;-0.50;99.90
2387;DHT22;49473;50.772;8.768;2023-01-26T03:13:09;-0.50;99.90
2387;DHT22;49473;50.772;8.768;2023-01-26T03:15:37;-0.50;99.90
2387;DHT22;49473;50.772;8.768;2023-01-26T03:18:17;-0.60;99.90
2387;DHT22;49473;50.772;8.768;2023-01-26T03:21:03;-0.60;99.90
2387;DHT22;49473;50.772;8.768;2023-01-26T03:23:47;-0.60;99.90
2387;DHT22;49473;50.772;8.768;2023-01-26T03:26:32;-0.60;99.90
2387;DHT22;49473;50.772;8.768;2023-01-26T03:29:16;-0.60;99.90
2387;DHT22;49473;50.772;8.768;2023-01-26T03:31:44;-0.60;99.90
2387;DHT22;49473;50.772;8.768;2023-01-26T03:34:11;-0.60;99.90
2387;DHT22;49473;50.772;8.768;2023-01-26T03:36:37;-0.70;99.90
2387;DHT22;49473;50.772;8.768;2023-01-26T03:39:04;-0.70;99.90
2387;DHT22;49473;50.772;8.768;2023-01-26T03:41:31;-0.70;99.90
2387;DHT22;49473;50.772;8.768;2023-01-26T03:44:15;-0.70;99.90
2387;DHT22;49473;50.772;8.768;2023-01-26T03:47:01;-0.70;99.90
2387;DHT22;49473;50.772;8.768;2023-01-26T03:49:45;-0.80;99.90
2387;DHT22;49473;50.772;8.768;2023-01-26T03:52:31;-0.70;99.90
2387;DHT22;49473;50.772;8.768;2023-01-26T03:55:15;-0.70;99.90
2387;DHT22;49473;50.772;8.768;2023-01-26T03:57:59;-0.80;99.90
2387;DHT22;49473;50.772;8.768;2023-01-26T04:00:26;-0.80;99.90
2387;DHT22;49473;50.772;8.768;2023-01-26T04:02:55;-0.80;99.90
2387;DHT22;49473;50.772;8.768;2023-01-26T04:05:39;-0.80;99.90
2387;DHT22;49473;50.772;8.768;2023-01-26T04:08:24;-0.80;99.90
2387;DHT22;49473;50.772;8.768;2023-01-26T04:10:52;-0.80;99.90
2387;DHT22;49473;50.772;8.768;2023-01-26T04:13:19;-0.80;99.90
2387;DHT22;49473;50.772;8.768;2023-01-26T04:16:04;-0.90;99.90
2387;DHT22;49473;50.772;8.768;2023-01-26T04:18:49;-0.90;99.90
2387;DHT22;49473;50.772;8.768;2023-01-26T04:21:33;-0.80;99.90
2387;DHT22;49473;50.772;8.768;2023-01-26T04:24:02;-0.90;99.90
2387;DHT22;49473;50.772;8.768;2023-01-26T04:26:35;-1.00;99.90
2387;DHT22;49473;50.772;8.768;2023-01-26T04:29:03;-0.80;99.90
2387;DHT22;49473;50.772;8.768;2023-01-26T04:31:30;-0.80;99.90
2387;DHT22;49473;50.772;8.768;2023-01-26T04:33:58;-0.70;99.90
2387;DHT22;49473;50.772;8.768;2023-01-26T04:36:25;-0.80;99.90
2387;DHT22;49473;50.772;8.768;2023-01-26T04:38:52;-0.70;99.90
2387;DHT22;49473;50.772;8.768;2023-01-26T04:41:19;-0.70;99.90
2387;DHT22;49473;50.772;8.768;2023-01-26T04:43:46;-0.80;99.90
2387;DHT22;49473;50.772;8.768;2023-01-26T04:46:12;-0.80;99.90
2387;DHT22;49473;50.772;8.768;2023-01-26T04:48:39;-0.90;99.90
2387;DHT22;49473;50.772;8.768;2023-01-26T04:51:11;-0.90;99.90
2387;DHT22;49473;50.772;8.768;2023-01-26T04:53:38;-1.00;99.90
2387;DHT22;49473;50.772;8.768;2023-01-26T04:56:06;-1.00;99.90
2387;DHT22;49473;50.772;8.768;2023-01-26T04:58:33;-1.00;99.90
2387;DHT22;49473;50.772;8.768;2023-01-26T05:01:00;-0.90;99.90
2387;DHT22;49473;50.772;8.768;2023-01-26T05:03:26;-0.90;99.90
2387;DHT22;49473;50.772;8.768;2023-01-26T05:05:54;-1.00;99.90
2387;DHT22;49473;50.772;8.768;2023-01-26T05:08:22;-0.90;99.90
2387;DHT22;49473;50.772;8.768;2023-01-26T05:10:49;-0.90;99.90
2387;DHT22;49473;50.772;8.768;2023-01-26T05:13:16;-1.00;99.90
2387;DHT22;49473;50.772;8.768;2023-01-26T05:15:43;-1.00;99.90
2387;DHT22;49473;50.772;8.768;2023-01-26T05:18:10;-0.90;99.90
2387;DHT22;49473;50.772;8.768;2023-01-26T05:20:37;-0.90;99.90
2387;DHT22;49473;50.772;8.768;2023-01-26T05:23:04;-0.90;99.90
2387;DHT22;49473;50.772;8.768;2023-01-26T05:25:32;-0.90;99.90
2387;DHT22;49473;50.772;8.768;2023-01-26T05:27:59;-1.00;99.90
2387;DHT22;49473;50.772;8.768;2023-01-26T05:30:26;-1.00;99.90
2387;DHT22;49473;50.772;8.768;2023-01-26T05:32:52;-1.00;99.90
2387;DHT22;49473;50.772;8.768;2023-01-26T05:35:19;-1.00;99.90
2387;DHT22;49473;50.772;8.768;2023-01-26T05:37:46;-1.00;99.90
2387;DHT22;49473;50.772;8.768;2023-01-26T05:40:13;-1.00;99.90
2387;DHT22;49473;50.772;8.768;2023-01-26T05:42:42;-1.00;99.90
2387;DHT22;49473;50.772;8.768;2023-01-26T05:45:09;-1.10;99.90
2387;DHT22;49473;50.772;8.768;2023-01-26T05:47:36;-1.10;99.90
2387;DHT22;49473;50.772;8.768;2023-01-26T05:50:03;-1.10;99.90
2387;DHT22;49473;50.772;8.768;2023-01-26T05:52:30;-1.10;99.90
2387;DHT22;49473;50.772;8.768;2023-01-26T05:54:57;-1.10;99.90
2387;DHT22;49473;50.772;8.768;2023-01-26T05:57:24;-1.10;99.90
2387;DHT22;49473;50.772;8.768;2023-01-26T05:59:52;-1.10;99.90
2387;DHT22;49473;50.772;8.768;2023-01-26T06:02:19;-1.10;99.90
2387;DHT22;49473;50.772;8.768;2023-01-26T06:04:45;-1.10;99.90
2387;DHT22;49473;50.772;8.768;2023-01-26T06:07:13;-1.10;99.90
2387;DHT22;49473;50.772;8.768;2023-01-26T06:09:40;-1.10;99.90
2387;DHT22;49473;50.772;8.768;2023-01-26T06:12:13;-1.10;99.90
2387;DHT22;49473;50.772;8.768;2023-01-26T06:14:41;-1.20;99.90
2387;DHT22;49473;50.772;8.768;2023-01-26T06:17:10;-1.10;99.90
2387;DHT22;49473;50.772;8.768;2023-01-26T06:19:37;-1.20;99.90
2387;DHT22;49473;50.772;8.768;2023-01-26T06:22:06;-1.20;99.90
2387;DHT22;49473;50.772;8.768;2023-01-26T06:24:33;-1.10;99.90
2387;DHT22;49473;50.772;8.768;2023-01-26T06:27:00;-1.20;99.90
2387;DHT22;49473;50.772;8.768;2023-01-26T06:29:27;-1.20;99.90
2387;DHT22;49473;50.772;8.768;2023-01-26T06:31:54;-1.20;99.90
2387;DHT22;49473;50.772;8.768;2023-01-26T06:34:22;-1.20;99.90
2387;DHT22;49473;50.772;8.768;2023-01-26T06:36:48;-1.30;99.90
2387;DHT22;49473;50.772;8.768;2023-01-26T06:39:15;-1.30;99.90
2387;DHT22;49473;50.772;8.768;2023-01-26T06:41:42;-1.30;99.90
2387;DHT22;49473;50.772;8.768;2023-01-26T06:44:10;-1.30;99.90
2387;DHT22;49473;50.772;8.768;2023-01-26T06:46:38;-1.40;99.90
2387;DHT22;49473;50.772;8.768;2023-01-26T06:49:04;-1.40;99.90
2387;DHT22;49473;50.772;8.768;2023-01-26T06:51:45;-1.40;99.90
2387;DHT22;49473;50.772;8.768;2023-01-26T06:54:13;-1.50;99.90
2387;DHT22;49473;50.772;8.768;2023-01-26T06:56:41;-1.50;99.90
2387;DHT22;49473;50.772;8.768;2023-01-26T06:59:07;-1.50;99.90
2387;DHT22;49473;50.772;8.768;2023-01-26T07:01:37;-1.50;99.90
2387;DHT22;49473;50.772;8.768;2023-01-26T07:04:04;-1.60;99.90
2387;DHT22;49473;50.772;8.768;2023-01-26T07:06:32;-1.60;99.90
2387;DHT22;49473;50.772;8.768;2023-01-26T07:09:00;-1.50;99.90
2387;DHT22;49473;50.772;8.768;2023-01-26T07:11:27;-1.40;99.90
2387;DHT22;49473;50.772;8.768;2023-01-26T07:13:55;-1.40;99.90
2387;DHT22;49473;50.772;8.768;2023-01-26T07:16:22;-1.30;99.90
2387;DHT22;49473;50.772;8.768;2023-01-26T07:18:49;-1.30;99.90
2387;DHT22;49473;50.772;8.768;2023-01-26T07:21:17;-1.20;99.90
2387;DHT22;49473;50.772;8.768;2023-01-26T07:23:43;-1.20;99.90
2387;DHT22;49473;50.772;8.768;2023-01-26T07:26:12;-1.20;99.90
2387;DHT22;49473;50.772;8.768;2023-01-26T07:28:38;-1.10;99.90
2387;DHT22;49473;50.772;8.768;2023-01-26T07:31:06;-1.20;99.90
2387;DHT22;49473;50.772;8.768;2023-01-26T07:33:33;-1.20;99.90
2387;DHT22;49473;50.772;8.768;2023-01-26T07:36:00;-1.30;99.90
2387;DHT22;49473;50.772;8.768;2023-01-26T07:38:28;-1.30;99.90
2387;DHT22;49473;50.772;8.768;2023-01-26T07:40:55;-1.30;99.90
2387;DHT22;49473;50.772;8.768;2023-01-26T07:43:24;-1.30;99.90
2387;DHT22;49473;50.772;8.768;2023-01-26T07:45:52;-1.30;99.90
2387;DHT22;49473;50.772;8.768;2023-01-26T07:48:21;-1.20;99.90
2387;DHT22;49473;50.772;8.768;2023-01-26T07:50:49;-1.00;99.90
2387;DHT22;49473;50.772;8.768;2023-01-26T07:53:17;-0.90;99.90
2387;DHT22;49473;50.772;8.768;2023-01-26T07:55:46;-0.90;99.90
2387;DHT22;49473;50.772;8.768;2023-01-26T07:58:13;-0.80;99.90
2387;DHT22;49473;50.772;8.768;2023-01-26T08:00:41;-0.60;99.90
2387;DHT22;49473;50.772;8.768;2023-01-26T08:03:07;-0.70;99.90
2387;DHT22;49473;50.772;8.768;2023-01-26T08:05:34;-0.60;99.90
2387;DHT22;49473;50.772;8.768;2023-01-26T08:08:03;-0.50;99.90
2387;DHT22;49473;50.772;8.768;2023-01-26T08:10:30;-0.50;99.90
2387;DHT22;49473;50.772;8.768;2023-01-26T08:12:57;-0.40;99.90
2387;DHT22;49473;50.772;8.768;2023-01-26T08:15:24;-0.40;99.90
2387;DHT22;49473;50.772;8.768;2023-01-26T08:17:53;-0.50;99.90
2387;DHT22;49473;50.772;8.768;2023-01-26T08:20:20;-0.40;99.90
2387;DHT22;49473;50.772;8.768;2023-01-26T08:22:47;-0.30;99.90
2387;DHT22;49473;50.772;8.768;2023-01-26T08:25:13;-0.40;99.90
2387;DHT22;49473;50.772;8.768;2023-01-26T08:27:40;-0.30;99.90
2387;DHT22;49473;50.772;8.768;2023-01-26T08:30:08;-0.40;99.90
2387;DHT22;49473;50.772;8.768;2023-01-26T08:32:35;-0.40;99.90
2387;DHT22;49473;50.772;8.768;2023-01-26T08:35:04;-0.30;99.90
2387;DHT22;49473;50.772;8.768;2023-01-26T08:37:31;-0.30;99.90
2387;DHT22;49473;50.772;8.768;2023-01-26T08:39:59;-0.30;99.90
2387;DHT22;49473;50.772;8.768;2023-01-26T08:42:26;-0.30;99.90
2387;DHT22;49473;50.772;8.768;2023-01-26T08:44:53;-0.30;99.90
2387;DHT22;49473;50.772;8.768;2023-01-26T08:47:20;-0.40;99.90
2387;DHT22;49473;50.772;8.768;2023-01-26T08:49:46;-0.40;99.90
2387;DHT22;49473;50.772;8.768;2023-01-26T08:52:14;-0.50;99.90
2387;DHT22;49473;50.772;8.768;2023-01-26T08:54:41;-0.60;99.90
2387;DHT22;49473;50.772;8.768;2023-01-26T08:57:08;-0.60;99.90
2387;DHT22;49473;50.772;8.768;2023-01-26T08:59:34;-0.60;99.90
2387;DHT22;49473;50.772;8.768;2023-01-26T09:02:01;-0.60;99.90
2387;DHT22;49473;50.772;8.768;2023-01-26T09:04:28;-0.50;99.90
2387;DHT22;49473;50.772;8.768;2023-01-26T09:06:54;-0.40;99.90
2387;DHT22;49473;50.772;8.768;2023-01-26T09:09:22;-0.30;99.90
2387;DHT22;49473;50.772;8.768;2023-01-26T09:11:49;-0.20;99.90
2387;DHT22;49473;50.772;8.768;2023-01-26T09:14:16;-0.20;99.90
2387;DHT22;49473;50.772;8.768;2023-01-26T09:16:42;-0.10;99.90
2387;DHT22;49473;50.772;8.768;2023-01-26T09:19:09;0.10;99.90
2387;DHT22;49473;50.772;8.768;2023-01-26T09:21:36;0.20;99.90
2387;DHT22;49473;50.772;8.768;2023-01-26T09:24:03;0.40;99.90
2387;DHT22;49473;50.772;8.768;2023-01-26T09:26:31;0.40;99.90
2387;DHT22;49473;50.772;8.768;2023-01-26T09:28:58;0.50;99.90
2387;DHT22;49473;50.772;8.768;2023-01-26T09:31:25;0.40;99.90
2387;DHT22;49473;50.772;8.768;2023-01-26T09:33:51;0.40;99.90
2387;DHT22;49473;50.772;8.768;2023-01-26T09:36:18;0.50;99.90
2387;DHT22;49473;50.772;8.768;2023-01-26T09:38:45;0.70;99.90
2387;DHT22;49473;50.772;8.768;2023-01-26T09:41:25;0.80;99.90
2387;DHT22;49473;50.772;8.768;2023-01-26T09:43:58;0.70;99.90
2387;DHT22;49473;50.772;8.768;2023-01-26T09:46:37;0.80;99.90
2387;DHT22;49473;50.772;8.768;2023-01-26T09:49:08;0.80;99.90
2387;DHT22;49473;50.772;8.768;2023-01-26T09:51:38;0.70;99.90
2387;DHT22;49473;50.772;8.768;2023-01-26T09:54:14;0.70;99.90
2387;DHT22;49473;50.772;8.768;2023-01-26T09:56:45;0.50;99.90
2387;DHT22;49473;50.772;8.768;2023-01-26T09:59:20;0.40;99.90
2387;DHT22;49473;50.772;8.768;2023-01-26T10:01:54;0.30;99.90
2387;DHT22;49473;50.772;8.768;2023-01-26T10:04:28;0.30;99.90
2387;DHT22;49473;50.772;8.768;2023-01-26T10:06:59;0.50;99.90
2387;DHT22;49473;50.772;8.768;2023-01-26T10:09:29;0.50;99.90
2387;DHT22;49473;50.772;8.768;2023-01-26T10:12:01;0.40;99.90
2387;DHT22;49473;50.772;8.768;2023-01-26T10:14:35;0.50;99.90
2387;DHT22;49473;50.772;8.768;2023-01-26T10:17:04;0.60;99.90
2387;DHT22;49473;50.772;8.768;2023-01-26T10:19:34;0.70;99.90
2387;DHT22;49473;50.772;8.768;2023-01-26T10:22:05;0.70;99.90
2387;DHT22;49473;50.772;8.768;2023-01-26T10:24:33;0.70;99.90
2387;DHT22;49473;50.772;8.768;2023-01-26T10:27:00;0.80;99.90
2387;DHT22;49473;50.772;8.768;2023-01-26T10:29:26;0.90;99.90
2387;DHT22;49473;50.772;8.768;2023-01-26T10:31:54;0.80;99.90
2387;DHT22;49473;50.772;8.768;2023-01-26T10:34:23;0.80;99.90
2387;DHT22;49473;50.772;8.768;2023-01-26T10:36:55;0.90;99.90
2387;DHT22;49473;50.772;8.768;2023-01-26T10:39:25;0.90;99.90
2387;DHT22;49473;50.772;8.768;2023-01-26T10:41:56;0.80;99.90
2387;DHT22;49473;50.772;8.768;2023-01-26T10:44:30;0.70;99.90
2387;DHT22;49473;50.772;8.768;2023-01-26T10:47:05;0.70;99.90
2387;DHT22;49473;50.772;8.768;2023-01-26T10:49:32;0.90;99.90
2387;DHT22;49473;50.772;8.768;2023-01-26T10:52:07;1.10;99.90
2387;DHT22;49473;50.772;8.768;2023-01-26T10:54:34;1.00;99.90
2387;DHT22;49473;50.772;8.768;2023-01-26T10:57:04;1.10;99.90
2387;DHT22;49473;50.772;8.768;2023-01-26T10:59:34;1.20;99.90
2387;DHT22;49473;50.772;8.768;2023-01-26T11:02:20;1.10;99.90
2387;DHT22;49473;50.772;8.768;2023-01-26T11:05:19;1.30;99.90
2387;DHT22;49473;50.772;8.768;2023-01-26T11:07:48;1.40;99.90
2387;DHT22;49473;50.772;8.768;2023-01-26T11:10:20;1.50;99.90
2387;DHT22;49473;50.772;8.768;2023-01-26T11:12:48;1.60;99.90
2387;DHT22;49473;50.772;8.768;2023-01-26T11:15:16;1.50;99.90
2387;DHT22;49473;50.772;8.768;2023-01-26T11:17:49;1.40;99.90
2387;DHT22;49473;50.772;8.768;2023-01-26T11:20:37;1.40;99.90
2387;DHT22;49473;50.772;8.768;2023-01-26T11:23:13;1.40;99.90
2387;DHT22;49473;50.772;8.768;2023-01-26T11:25:59;1.40;99.90
2387;DHT22;49473;50.772;8.768;2023-01-26T11:28:40;1.30;99.90
2387;DHT22;49473;50.772;8.768;2023-01-26T11:31:17;1.40;99.90
2387;DHT22;49473;50.772;8.768;2023-01-26T11:33:58;1.40;99.90
2387;DHT22;49473;50.772;8.768;2023-01-26T11:36:36;1.50;99.90
2387;DHT22;49473;50.772;8.768;2023-01-26T11:39:20;1.60;99.90
2387;DHT22;49473;50.772;8.768;2023-01-26T11:42:03;1.50;99.90
2387;DHT22;49473;50.772;8.768;2023-01-26T11:44:47;1.50;99.90
2387;DHT22;49473;50.772;8.768;2023-01-26T11:47:33;1.40;99.90
2387;DHT22;49473;50.772;8.768;2023-01-26T11:50:16;1.30;99.90
2387;DHT22;49473;50.772;8.768;2023-01-26T11:52:50;1.30;99.90
2387;DHT22;49473;50.772;8.768;2023-01-26T11:55:30;1.30;99.90
2387;DHT22;49473;50.772;8.768;2023-01-26T11:58:12;1.40;99.90
2387;DHT22;49473;50.772;8.768;2023-01-26T12:00:43;1.40;99.90
2387;DHT22;49473;50.772;8.768;2023-01-26T12:03:17;1.40;99.90
2387;DHT22;49473;50.772;8.768;2023-01-26T12:05:47;1.60;99.90
2387;DHT22;49473;50.772;8.768;2023-01-26T12:08:21;1.40;99.90
2387;DHT22;49473;50.772;8.768;2023-01-26T12:11:04;1.50;99.90
2387;DHT22;49473;50.772;8.768;2023-01-26T12:13:49;1.50;99.90
2387;DHT22;49473;50.772;8.768;2023-01-26T12:16:24;1.50;99.90
2387;DHT22;49473;50.772;8.768;2023-01-26T12:18:58;1.70;99.90
2387;DHT22;49473;50.772;8.768;2023-01-26T12:21:30;1.80;99.90
2387;DHT22;49473;50.772;8.768;2023-01-26T12:24:00;1.80;99.90
2387;DHT22;49473;50.772;8.768;2023-01-26T12:26:32;1.80;99.90
2387;DHT22;49473;50.772;8.768;2023-01-26T12:29:04;1.70;99.90
2387;DHT22;49473;50.772;8.768;2023-01-26T12:31:37;1.60;99.90
2387;DHT22;49473;50.772;8.768;2023-01-26T12:34:08;1.70;99.90
2387;DHT22;49473;50.772;8.768;2023-01-26T12:36:43;1.50;99.90
2387;DHT22;49473;50.772;8.768;2023-01-26T12:39:15;1.60;99.90
2387;DHT22;49473;50.772;8.768;2023-01-26T12:42:00;1.60;99.90
2387;DHT22;49473;50.772;8.768;2023-01-26T12:44:35;1.60;99.90
2387;DHT22;49473;50.772;8.768;2023-01-26T12:47:07;1.70;99.90
2387;DHT22;49473;50.772;8.768;2023-01-26T12:49:42;1.70;99.90
2387;DHT22;49473;50.772;8.768;2023-01-26T12:52:14;1.50;99.90
2387;DHT22;49473;50.772;8.768;2023-01-26T12:54:48;1.30;99.90
2387;DHT22;49473;50.772;8.768;2023-01-26T12:57:20;1.10;99.90
2387;DHT22;49473;50.772;8.768;2023-01-26T12:59:47;1.10;99.90
2387;DHT22;49473;50.772;8.768;2023-01-26T13:02:26;1.20;99.90
2387;DHT22;49473;50.772;8.768;2023-01-26T13:04:55;1.40;99.90
2387;DHT22;49473;50.772;8.768;2023-01-26T13:07:29;1.50;99.90
2387;DHT22;49473;50.772;8.768;2023-01-26T13:12:51;1.60;99.90
2387;DHT22;49473;50.772;8.768;2023-01-26T13:15:20;1.60;99.90
2387;DHT22;49473;50.772;8.768;2023-01-26T13:17:51;1.50;99.90
2387;DHT22;49473;50.772;8.768;2023-01-26T13:20:40;1.20;99.90
2387;DHT22;49473;50.772;8.768;2023-01-26T13:23:36;1.10;99.90
2387;DHT22;49473;50.772;8.768;2023-01-26T13:29:38;1.20;99.90
2387;DHT22;49473;50.772;8.768;2023-01-26T13:35:23;1.30;99.90
2387;DHT22;49473;50.772;8.768;2023-01-26T13:37:56;1.30;99.90
2387;DHT22;49473;50.772;8.768;2023-01-26T13:40:29;1.40;99.90
2387;DHT22;49473;50.772;8.768;2023-01-26T13:43:00;1.20;99.90
2387;DHT22;49473;50.772;8.768;2023-01-26T13:45:32;1.20;99.90
2387;DHT22;49473;50.772;8.768;2023-01-26T13:48:04;1.30;99.90
2387;DHT22;49473;50.772;8.768;2023-01-26T13:50:35;1.10;99.90
2387;DHT22;49473;50.772;8.768;2023-01-26T13:53:26;1.20;99.90
2387;DHT22;49473;50.772;8.768;2023-01-26T13:55:58;1.20;99.90
2387;DHT22;49473;50.772;8.768;2023-01-26T13:58:25;1.00;99.90
2387;DHT22;49473;50.772;8.768;2023-01-26T14:00:59;1.00;99.90
2387;DHT22;49473;50.772;8.768;2023-01-26T14:03:25;1.10;99.90
2387;DHT22;49473;50.772;8.768;2023-01-26T14:05:55;1.00;99.90
2387;DHT22;49473;50.772;8.768;2023-01-26T14:08:22;1.10;99.90
2387;DHT22;49473;50.772;8.768;2023-01-26T14:10:50;1.10;99.90
2387;DHT22;49473;50.772;8.768;2023-01-26T14:13:23;1.10;99.90
2387;DHT22;49473;50.772;8.768;2023-01-26T14:15:55;1.20;99.90
2387;DHT22;49473;50.772;8.768;2023-01-26T14:18:24;1.30;99.90
2387;DHT22;49473;50.772;8.768;2023-01-26T14:20:57;1.40;99.90
2387;DHT22;49473;50.772;8.768;2023-01-26T14:23:26;1.50;99.90
2387;DHT22;49473;50.772;8.768;2023-01-26T14:25:57;1.50;99.90
2387;DHT22;49473;50.772;8.768;2023-01-26T14:28:27;1.60;99.90
2387;DHT22;49473;50.772;8.768;2023-01-26T14:31:00;1.60;99.90
2387;DHT22;49473;50.772;8.768;2023-01-26T14:33:28;1.50;99.90
2387;DHT22;49473;50.772;8.768;2023-01-26T14:35:58;1.60;99.90
2387;DHT22;49473;50.772;8.768;2023-01-26T14:38:26;1.60;99.90
2387;DHT22;49473;50.772;8.768;2023-01-26T14:40:55;1.60;99.90
2387;DHT22;49473;50.772;8.768;2023-01-26T14:43:23;1.60;99.90
2387;DHT22;49473;50.772;8.768;2023-01-26T14:45:54;1.60;99.90
2387;DHT22;49473;50.772;8.768;2023-01-26T14:48:28;1.60;99.90
2387;DHT22;49473;50.772;8.768;2023-01-26T14:50:56;1.50;99.90
2387;DHT22;49473;50.772;8.768;2023-01-26T14:53:24;1.50;99.90
2387;DHT22;49473;50.772;8.768;2023-01-26T14:55:52;1.40;99.90
2387;DHT22;49473;50.772;8.768;2023-01-26T14:58:21;1.40;99.90
2387;DHT22;49473;50.772;8.768;2023-01-26T15:00:50;1.40;99.90
2387;DHT22;49473;50.772;8.768;2023-01-26T15:03:22;1.30;99.90
2387;DHT22;49473;50.772;8.768;2023-01-26T15:06:03;1.30;99.90
2387;DHT22;49473;50.772;8.768;2023-01-26T15:08:30;1.40;99.90
2387;DHT22;49473;50.772;8.768;2023-01-26T15:10:58;1.50;99.90
2387;DHT22;49473;50.772;8.768;2023-01-26T15:13:40;1.60;99.90
2387;DHT22;49473;50.772;8.768;2023-01-26T15:16:14;1.60;99.90
2387;DHT22;49473;50.772;8.768;2023-01-26T15:18:41;1.60;99.90
2387;DHT22;49473;50.772;8.768;2023-01-26T15:21:16;1.60;99.90
2387;DHT22;49473;50.772;8.768;2023-01-26T15:23:48;1.60;99.90
2387;DHT22;49473;50.772;8.768;2023-01-26T15:26:23;1.50;99.90
2387;DHT22;49473;50.772;8.768;2023-01-26T15:28:53;1.40;99.90
2387;DHT22;49473;50.772;8.768;2023-01-26T15:31:27;1.20;99.90
2387;DHT22;49473;50.772;8.768;2023-01-26T15:33:55;1.30;99.90
2387;DHT22;49473;50.772;8.768;2023-01-26T15:36:45;1.40;99.90
2387;DHT22;49473;50.772;8.768;2023-01-26T15:39:14;1.40;99.90
2387;DHT22;49473;50.772;8.768;2023-01-26T15:41:41;1.40;99.90
2387;DHT22;49473;50.772;8.768;2023-01-26T15:44:13;1.40;99.90
2387;DHT22;49473;50.772;8.768;2023-01-26T15:46:40;1.40;99.90
2387;DHT22;49473;50.772;8.768;2023-01-26T15:49:07;1.40;99.90
2387;DHT22;49473;50.772;8.768;2023-01-26T15:51:36;1.50;99.90
2387;DHT22;49473;50.772;8.768;2023-01-26T15:54:04;1.50;99.90
2387;DHT22;49473;50.772;8.768;2023-01-26T15:56:31;1.40;99.90
2387;DHT22;49473;50.772;8.768;2023-01-26T15:58:58;1.40;99.90
2387;DHT22;49473;50.772;8.768;2023-01-26T16:01:25;1.40;99.90
2387;DHT22;49473;50.772;8.768;2023-01-26T16:03:52;1.50;99.90
2387;DHT22;49473;50.772;8.768;2023-01-26T16:06:22;1.50;99.90
2387;DHT22;49473;50.772;8.768;2023-01-26T16:08:50;1.50;99.90
2387;DHT22;49473;50.772;8.768;2023-01-26T16:11:18;1.50;99.90
2387;DHT22;49473;50.772;8.768;2023-01-26T16:13:45;1.50;99.90
2387;DHT22;49473;50.772;8.768;2023-01-26T16:16:13;1.60;99.90
2387;DHT22;49473;50.772;8.768;2023-01-26T16:18:40;1.60;99.90
2387;DHT22;49473;50.772;8.768;2023-01-26T16:21:15;1.60;99.90
2387;DHT22;49473;50.772;8.768;2023-01-26T16:23:42;1.60;99.90
2387;DHT22;49473;50.772;8.768;2023-01-26T16:26:13;1.70;99.90